EKOD/ODE METAR and TAF weather

Enter ICAO airport designator
Station Type Date Time Source
EKOD METAR 2018/01/24 07:20 UTC NOAA

EKOD 240720Z 21012KT 6000 SCT004 OVC006 07/06 Q1008


Station Type Date Time Source
EKOD Decoded METAR 2018/01/24 07:20 UTC NOAA

Odense / Beldringe, Denmark (EKOD) 55-29N 010-20E 17M
Jan 24, 2018 - 02:20 AM EST / 2018.01.24 0720 UTC
Wind: from the SSW (210 degrees) at 14 MPH (12 KT):0
Visibility: 3 mile(s):0
Sky conditions: overcast
Temperature: 44 F (7 C)
Dew Point: 42 F (6 C)
Relative Humidity: 93%
Pressure (altimeter): 29.77 in. Hg (1008 hPa)
ob: EKOD 240720Z 21012KT 6000 SCT004 OVC006 07/06 Q1008
cycle: 7

Station Type Date Time Source
EKOD TAF 2015/04/20 17:00 UTC NOAA

TAF
AMD EKOD 201701Z 2017/2018 CNL


Example: see airport list